createdAt,value
2022-10-17T00:00:31.790Z,12.32
2022-10-17T00:01:33.448Z,12.34
2022-10-17T00:02:35.059Z,12.33
2022-10-17T00:03:36.941Z,12.34
2022-10-17T00:04:38.517Z,12.34
2022-10-17T00:05:41.354Z,12.41
2022-10-17T00:06:42.905Z,12.46
2022-10-17T00:07:44.508Z,12.50
2022-10-17T00:08:46.182Z,12.57
2022-10-17T00:09:47.716Z,12.63
2022-10-17T00:10:57.081Z,12.65
2022-10-17T00:11:58.638Z,12.76
2022-10-17T00:13:00.186Z,12.77
2022-10-17T00:14:01.840Z,12.84
2022-10-17T00:15:04.941Z,12.85
2022-10-17T00:16:07.016Z,12.87
2022-10-17T00:17:08.590Z,12.91
2022-10-17T00:18:10.187Z,12.91
2022-10-17T00:19:11.742Z,12.95
2022-10-17T00:20:13.752Z,12.94
2022-10-17T00:21:16.705Z,12.94
2022-10-17T00:22:18.253Z,12.92
2022-10-17T00:23:19.794Z,12.95
2022-10-17T00:24:21.398Z,12.95
2022-10-17T00:25:23.080Z,12.98
2022-10-17T00:26:24.789Z,12.95
2022-10-17T00:27:26.541Z,12.98
2022-10-17T00:28:28.375Z,12.99
2022-10-17T00:29:29.963Z,12.99
2022-10-17T00:30:32.952Z,12.97
2022-10-17T00:31:35.720Z,12.97
2022-10-17T00:32:37.381Z,12.97
2022-10-17T00:33:39.341Z,12.97
2022-10-17T00:34:40.926Z,12.95
2022-10-17T00:35:42.555Z,12.98
2022-10-17T00:36:44.115Z,12.95
2022-10-17T00:37:45.713Z,12.97
2022-10-17T00:38:47.980Z,12.95
2022-10-17T00:39:49.688Z,12.94
2022-10-17T00:40:51.381Z,12.95
2022-10-17T00:41:53.056Z,12.95
2022-10-17T00:42:54.638Z,12.91
2022-10-17T00:44:04.191Z,12.89
2022-10-17T00:45:23.332Z,12.87
2022-10-17T00:46:27.617Z,12.87
2022-10-17T00:47:29.347Z,12.83
2022-10-17T00:48:30.962Z,12.83
2022-10-17T00:49:34.038Z,12.85
2022-10-17T00:50:36.171Z,12.81
2022-10-17T00:51:43.481Z,12.83
2022-10-17T00:52:45.023Z,12.80
2022-10-17T00:53:46.604Z,12.83
2022-10-17T00:55:09.410Z,12.84
2022-10-17T00:56:10.972Z,12.85
2022-10-17T00:57:12.618Z,12.85
2022-10-17T00:58:14.162Z,12.85
2022-10-17T00:59:16.332Z,12.85
2022-10-17T01:00:18.089Z,12.88
2022-10-17T01:01:19.741Z,12.88
2022-10-17T01:02:21.804Z,12.89
2022-10-17T01:03:23.497Z,12.88
2022-10-17T01:04:25.136Z,12.87
2022-10-17T01:05:26.685Z,12.85
2022-10-17T01:06:28.319Z,12.87
2022-10-17T01:07:33.232Z,12.87
2022-10-17T01:08:38.098Z,12.85
2022-10-17T01:09:39.722Z,12.83
2022-10-17T01:11:07.563Z,12.80
2022-10-17T01:12:29.653Z,12.77
2022-10-17T01:13:39.415Z,12.74
2022-10-17T01:14:57.512Z,12.74
2022-10-17T01:16:07.036Z,12.73
2022-10-17T01:17:39.883Z,12.68
2022-10-17T01:18:48.503Z,12.65
2022-10-17T01:20:17.465Z,12.65
2022-10-17T01:21:43.855Z,12.63
2022-10-17T01:23:08.373Z,12.60
2022-10-17T01:24:39.252Z,12.60
2022-10-17T01:25:52.956Z,12.58
2022-10-17T01:27:22.165Z,12.58
2022-10-17T01:28:57.548Z,12.60
2022-10-17T01:30:01.839Z,12.57
2022-10-17T01:31:26.095Z,12.54
2022-10-17T01:32:41.093Z,12.54
2022-10-17T01:34:08.589Z,12.53
2022-10-17T01:35:20.697Z,12.51
2022-10-17T01:36:46.394Z,12.50
2022-10-17T01:38:02.588Z,12.48
2022-10-17T01:39:15.260Z,12.48
2022-10-17T01:40:22.513Z,12.48
2022-10-17T01:41:40.537Z,12.48
2022-10-17T01:43:17.621Z,12.46
2022-10-17T01:44:38.980Z,12.46
2022-10-17T01:45:49.132Z,12.44
2022-10-17T01:46:51.030Z,12.44
2022-10-17T01:47:52.883Z,12.47
2022-10-17T01:48:54.518Z,12.46
2022-10-17T01:49:58.444Z,12.44
2022-10-17T01:51:06.114Z,12.41
2022-10-17T01:52:12.170Z,12.41
2022-10-17T01:53:16.879Z,12.43
2022-10-17T01:54:36.990Z,12.40
2022-10-17T01:55:41.377Z,12.43
2022-10-17T01:56:43.051Z,12.40
2022-10-17T01:57:50.589Z,12.40
2022-10-17T01:58:57.588Z,12.37
2022-10-17T01:59:59.200Z,12.36
2022-10-17T02:01:03.109Z,12.37
2022-10-17T02:02:04.752Z,12.38
2022-10-17T02:03:07.798Z,12.37
2022-10-17T02:04:09.396Z,12.37
2022-10-17T02:05:10.979Z,12.37
2022-10-17T02:06:12.539Z,12.33
2022-10-17T02:07:14.081Z,12.37
2022-10-17T02:08:25.375Z,12.38
2022-10-17T02:09:27.034Z,12.36
2022-10-17T02:10:31.888Z,12.34
2022-10-17T02:11:33.429Z,12.38
2022-10-17T02:12:45.357Z,12.33
2022-10-17T02:14:03.801Z,12.33
2022-10-17T02:15:34.840Z,12.33
2022-10-17T02:16:43.611Z,12.32
2022-10-17T02:18:12.882Z,12.36
2022-10-17T02:19:20.397Z,12.34
2022-10-17T02:20:35.541Z,12.37
2022-10-17T02:21:55.215Z,12.37
2022-10-17T02:23:09.752Z,12.38
2022-10-17T02:24:32.751Z,12.36
2022-10-17T02:25:58.005Z,12.34
2022-10-17T02:27:26.353Z,12.27
2022-10-17T02:28:41.518Z,12.32
2022-10-17T02:29:47.572Z,12.33
2022-10-17T02:30:53.893Z,12.30
2022-10-17T02:32:04.067Z,12.30
2022-10-17T02:33:08.335Z,12.27
2022-10-17T02:34:13.612Z,12.30
2022-10-17T02:35:15.269Z,12.30
2022-10-17T02:36:21.772Z,12.30
2022-10-17T02:37:25.591Z,12.26
2022-10-17T02:38:27.335Z,12.29
2022-10-17T02:39:29.315Z,12.29
2022-10-17T02:40:31.364Z,12.30
2022-10-17T02:41:33.004Z,12.30
2022-10-17T02:42:34.567Z,12.27
2022-10-17T02:43:36.146Z,12.29
2022-10-17T02:44:41.836Z,12.26
2022-10-17T02:45:43.440Z,12.25
2022-10-17T02:46:45.485Z,12.26
2022-10-17T02:47:54.274Z,12.27
2022-10-17T02:49:20.529Z,12.27
2022-10-17T02:50:24.834Z,12.25
2022-10-17T02:51:42.620Z,12.25
2022-10-17T02:52:51.811Z,12.23
2022-10-17T02:54:10.482Z,12.20
2022-10-17T02:55:31.333Z,12.20
2022-10-17T02:56:35.524Z,12.17
2022-10-17T02:57:38.914Z,12.16
2022-10-17T02:58:40.459Z,12.19
2022-10-17T02:59:42.033Z,12.16
2022-10-17T03:00:43.651Z,12.15
2022-10-17T03:01:45.252Z,12.16
2022-10-17T03:02:48.610Z,12.13
2022-10-17T03:03:50.200Z,12.13
2022-10-17T03:04:52.509Z,12.10
2022-10-17T03:05:54.208Z,12.09
2022-10-17T03:06:55.763Z,12.09
2022-10-17T03:07:57.351Z,12.07
2022-10-17T03:08:58.896Z,12.09
2022-10-17T03:10:00.437Z,12.10
2022-10-17T03:11:02.724Z,12.10
2022-10-17T03:12:04.742Z,12.12
2022-10-17T03:13:06.317Z,12.07
2022-10-17T03:14:07.912Z,12.07
2022-10-17T03:15:10.083Z,12.07
2022-10-17T03:16:12.008Z,12.07
2022-10-17T03:17:13.614Z,12.07
2022-10-17T03:18:15.398Z,12.03
2022-10-17T03:19:16.947Z,12.05
2022-10-17T03:20:18.503Z,12.03
2022-10-17T03:21:20.073Z,12.06
2022-10-17T03:22:21.630Z,12.05
2022-10-17T03:23:23.427Z,12.05
2022-10-17T03:24:25.036Z,12.03
2022-10-17T03:25:26.616Z,12.02
2022-10-17T03:26:29.569Z,12.02
2022-10-17T03:27:31.669Z,12.00
2022-10-17T03:28:33.748Z,12.02
2022-10-17T03:29:35.409Z,12.03
2022-10-17T03:30:38.432Z,12.00
2022-10-17T03:31:39.994Z,11.99
2022-10-17T03:32:41.551Z,11.97
2022-10-17T03:33:43.205Z,11.96
2022-10-17T03:34:44.763Z,11.95
2022-10-17T03:35:46.431Z,11.97
2022-10-17T03:36:48.055Z,11.93
2022-10-17T03:37:49.634Z,11.95
2022-10-17T03:38:54.006Z,11.93
2022-10-17T03:39:55.596Z,11.92
2022-10-17T03:40:57.197Z,11.93
2022-10-17T03:41:58.732Z,11.95
2022-10-17T03:43:00.298Z,11.95
2022-10-17T03:44:01.865Z,11.93
2022-10-17T03:45:03.611Z,11.90
2022-10-17T03:46:05.472Z,11.87
2022-10-17T03:47:09.240Z,11.89
2022-10-17T03:48:13.417Z,11.85
2022-10-17T03:49:15.070Z,11.87
2022-10-17T03:50:16.686Z,11.85
2022-10-17T03:51:18.290Z,11.89
2022-10-17T03:52:20.015Z,11.90
2022-10-17T03:53:21.591Z,11.86
2022-10-17T03:54:23.175Z,11.87
2022-10-17T03:55:24.725Z,11.85
2022-10-17T03:56:26.398Z,11.82
2022-10-17T03:57:28.268Z,11.83
2022-10-17T03:58:30.047Z,11.86
2022-10-17T03:59:31.701Z,11.85
2022-10-17T04:00:33.333Z,11.83
2022-10-17T04:01:35.068Z,11.83
2022-10-17T04:02:36.722Z,11.85
2022-10-17T04:03:38.284Z,11.82
2022-10-17T04:04:39.874Z,11.81
2022-10-17T04:05:41.714Z,11.82
2022-10-17T04:06:43.246Z,11.82
2022-10-17T04:07:44.804Z,11.83
2022-10-17T04:08:46.408Z,11.82
2022-10-17T04:09:48.044Z,11.81
2022-10-17T04:10:49.600Z,11.79
2022-10-17T04:11:51.177Z,11.82
2022-10-17T04:12:52.737Z,11.81
2022-10-17T04:13:55.203Z,11.82
2022-10-17T04:14:57.368Z,11.79
2022-10-17T04:16:00.466Z,11.81
2022-10-17T04:17:02.018Z,11.76
2022-10-17T04:19:10.685Z,11.76
2022-10-17T04:20:12.652Z,11.72
2022-10-17T04:21:14.249Z,11.75
2022-10-17T04:22:15.814Z,11.73
2022-10-17T04:23:17.460Z,11.78
2022-10-17T04:24:19.015Z,11.75
2022-10-17T04:25:20.575Z,11.76
2022-10-17T04:26:22.188Z,11.76
2022-10-17T04:27:23.796Z,11.72
2022-10-17T04:28:25.991Z,11.72
2022-10-17T04:29:27.605Z,11.69
2022-10-17T04:30:29.156Z,11.66
2022-10-17T04:31:30.697Z,11.69
2022-10-17T04:32:33.333Z,11.65
2022-10-17T04:33:34.923Z,11.62
2022-10-17T04:34:36.491Z,11.59
2022-10-17T04:35:38.024Z,11.57
2022-10-17T04:36:39.638Z,11.52
2022-10-17T04:37:41.276Z,11.52
2022-10-17T04:38:42.994Z,11.54
2022-10-17T04:39:44.638Z,11.52
2022-10-17T04:40:46.402Z,11.50
2022-10-17T04:41:47.974Z,11.50
2022-10-17T04:42:49.615Z,11.54
2022-10-17T04:43:51.480Z,11.52
2022-10-17T04:44:53.180Z,11.54
2022-10-17T04:45:54.775Z,11.52
2022-10-17T04:46:56.332Z,11.54
2022-10-17T04:47:57.936Z,11.50
2022-10-17T04:48:59.479Z,11.51
2022-10-17T04:50:01.214Z,11.48
2022-10-17T04:51:04.867Z,11.45
2022-10-17T04:52:06.438Z,11.44
2022-10-17T04:53:08.057Z,11.42
2022-10-17T04:54:09.628Z,11.44
2022-10-17T04:55:11.167Z,11.44
2022-10-17T04:56:20.343Z,11.45
2022-10-17T04:57:21.971Z,11.44
2022-10-17T04:58:23.624Z,11.48
2022-10-17T04:59:25.221Z,11.46
2022-10-17T05:00:26.790Z,11.50
2022-10-17T05:01:28.532Z,11.50
2022-10-17T05:02:30.464Z,11.45
2022-10-17T05:03:32.495Z,11.51
2022-10-17T05:04:34.113Z,11.51
2022-10-17T05:05:39.073Z,11.46
2022-10-17T05:06:40.710Z,11.50
2022-10-17T05:07:42.281Z,11.42
2022-10-17T05:08:43.970Z,11.41
2022-10-17T05:09:45.523Z,11.41
2022-10-17T05:10:47.290Z,11.41
2022-10-17T05:11:49.001Z,11.38
2022-10-17T05:12:50.638Z,11.36
2022-10-17T05:14:01.758Z,11.35
2022-10-17T05:15:03.429Z,11.32
2022-10-17T05:16:05.198Z,11.30
2022-10-17T05:17:06.763Z,11.34
2022-10-17T05:18:08.611Z,11.32
2022-10-17T05:19:10.973Z,11.30
2022-10-17T05:20:12.533Z,11.31
2022-10-17T05:21:14.126Z,11.31
2022-10-17T05:22:15.672Z,11.31
2022-10-17T05:23:17.302Z,11.32
2022-10-17T05:24:18.913Z,11.30
2022-10-17T05:25:20.797Z,11.30
2022-10-17T05:26:22.426Z,11.31
2022-10-17T05:27:23.990Z,11.28
2022-10-17T05:28:25.654Z,11.31
2022-10-17T05:29:27.307Z,11.31
2022-10-17T05:30:30.641Z,11.31
2022-10-17T05:31:34.038Z,11.31
2022-10-17T05:32:35.752Z,11.34
2022-10-17T05:33:37.449Z,11.34
2022-10-17T05:34:39.128Z,11.35
2022-10-17T05:35:40.767Z,11.35
2022-10-17T05:36:42.409Z,11.39
2022-10-17T05:37:43.970Z,11.44
2022-10-17T05:38:49.495Z,11.45
2022-10-17T05:39:51.621Z,11.50
2022-10-17T05:41:00.513Z,11.46
2022-10-17T05:42:02.037Z,11.48
2022-10-17T05:43:03.694Z,11.51
2022-10-17T05:44:05.814Z,11.57
2022-10-17T05:45:07.965Z,11.55
2022-10-17T05:46:09.894Z,11.54
2022-10-17T05:47:11.492Z,11.55
2022-10-17T05:48:13.060Z,11.59
2022-10-17T05:49:19.567Z,11.64
2022-10-17T05:50:33.320Z,11.81
2022-10-17T05:51:35.050Z,11.90
2022-10-17T05:52:36.834Z,12.06
2022-10-17T05:53:40.058Z,12.17
2022-10-17T05:54:41.629Z,12.37
2022-10-17T05:55:43.196Z,12.53
2022-10-17T05:56:44.806Z,12.69
2022-10-17T05:57:46.349Z,12.87
2022-10-17T05:58:50.799Z,12.91
2022-10-17T05:59:52.725Z,12.97
2022-10-17T06:01:08.232Z,12.97
2022-10-17T06:02:12.760Z,12.97
2022-10-17T06:03:14.405Z,12.92
2022-10-17T06:04:15.987Z,12.89
2022-10-17T06:05:17.585Z,12.83
2022-10-17T06:06:19.184Z,12.81
2022-10-17T06:07:22.106Z,12.81
2022-10-17T06:08:23.657Z,12.78
2022-10-17T06:09:25.237Z,12.74
2022-10-17T06:10:26.835Z,12.73
2022-10-17T06:11:28.439Z,12.76
2022-10-17T06:12:30.399Z,12.77
2022-10-17T06:13:33.372Z,12.77
2022-10-17T06:14:35.005Z,12.81
2022-10-17T06:15:36.609Z,12.80
2022-10-17T06:16:38.212Z,12.78
2022-10-17T06:17:40.869Z,12.83
2022-10-17T06:18:43.296Z,12.87
2022-10-17T06:19:45.194Z,12.87
2022-10-17T06:20:46.883Z,12.88
2022-10-17T06:21:48.501Z,12.91
2022-10-17T06:22:50.235Z,12.92
2022-10-17T06:23:52.348Z,12.94
2022-10-17T06:24:54.020Z,12.98
2022-10-17T06:26:01.439Z,12.98
2022-10-17T06:27:04.311Z,13.04
2022-10-17T06:28:07.491Z,13.08
2022-10-17T06:29:09.157Z,13.04
2022-10-17T06:30:10.733Z,13.11
2022-10-17T06:31:13.490Z,13.12
2022-10-17T06:32:15.411Z,13.12
2022-10-17T06:33:18.008Z,13.12
2022-10-17T06:34:19.647Z,13.14
2022-10-17T06:35:21.233Z,13.12
2022-10-17T06:36:22.830Z,13.18
2022-10-17T06:37:24.377Z,13.16
2022-10-17T06:38:26.024Z,13.18
2022-10-17T06:39:33.784Z,13.22
2022-10-17T06:40:35.355Z,13.18
2022-10-17T06:41:37.003Z,13.18
2022-10-17T06:42:39.246Z,13.19
2022-10-17T06:43:43.272Z,13.23
2022-10-17T06:44:44.896Z,13.28
2022-10-17T06:45:47.571Z,13.29
2022-10-17T06:46:49.236Z,13.40
2022-10-17T06:47:50.820Z,13.46
2022-10-17T06:48:52.865Z,13.49
2022-10-17T06:49:54.537Z,13.53
2022-10-17T06:51:02.560Z,13.60
2022-10-17T06:52:04.166Z,13.62
2022-10-17T06:53:05.766Z,13.66
2022-10-17T06:54:07.366Z,13.73
2022-10-17T06:55:09.283Z,13.80
2022-10-17T06:56:10.949Z,13.81
2022-10-17T06:57:12.575Z,13.87
2022-10-17T06:58:14.132Z,13.87
2022-10-17T06:59:15.883Z,13.93
2022-10-17T07:00:17.534Z,13.97
2022-10-17T07:01:19.174Z,14.01
2022-10-17T07:02:21.229Z,14.04
2022-10-17T07:03:22.790Z,14.07
2022-10-17T07:04:24.377Z,14.10
2022-10-17T07:05:26.008Z,14.10
2022-10-17T07:06:27.665Z,14.17
2022-10-17T07:07:32.558Z,14.18
2022-10-17T07:08:34.218Z,14.23
2022-10-17T07:09:36.000Z,14.28
2022-10-17T07:10:38.615Z,14.32
2022-10-17T07:11:40.391Z,14.34
2022-10-17T07:12:42.363Z,14.38
2022-10-17T07:13:44.011Z,14.38
2022-10-17T07:14:47.370Z,14.40
2022-10-17T07:15:48.986Z,14.38
2022-10-17T07:16:50.681Z,14.35
2022-10-17T07:17:52.616Z,14.38
2022-10-17T07:18:54.462Z,14.41
2022-10-17T07:19:56.019Z,14.44
2022-10-17T07:20:57.578Z,14.48
2022-10-17T07:21:59.246Z,14.55
2022-10-17T07:23:00.788Z,14.55
2022-10-17T07:24:02.378Z,14.57
2022-10-17T07:25:04.316Z,14.58
2022-10-17T07:26:09.555Z,14.62
2022-10-17T07:27:11.173Z,14.64
2022-10-17T07:28:12.696Z,14.69
2022-10-17T07:29:14.304Z,14.67
2022-10-17T07:30:16.051Z,14.71
2022-10-17T07:31:18.525Z,14.75
2022-10-17T07:32:20.069Z,14.78
2022-10-17T07:33:21.688Z,14.79
2022-10-17T07:34:27.491Z,14.85
2022-10-17T07:35:29.031Z,14.85
2022-10-17T07:36:30.713Z,14.86
2022-10-17T07:37:32.599Z,14.92
2022-10-17T07:38:34.496Z,14.92
2022-10-17T07:39:36.060Z,14.95
2022-10-17T07:40:37.708Z,14.98
2022-10-17T07:41:39.385Z,15.00
2022-10-17T07:42:40.974Z,15.03
2022-10-17T07:43:43.094Z,15.03
2022-10-17T07:44:47.458Z,15.07
2022-10-17T07:45:49.075Z,15.09
2022-10-17T07:46:50.742Z,15.09
2022-10-17T07:47:52.368Z,15.15
2022-10-17T07:48:53.960Z,15.15
2022-10-17T07:49:55.544Z,15.18
2022-10-17T07:50:57.134Z,15.20
2022-10-17T07:51:58.812Z,15.25
2022-10-17T07:53:00.486Z,15.32
2022-10-17T07:54:02.067Z,15.33
2022-10-17T07:55:03.848Z,15.32
2022-10-17T07:56:07.051Z,15.37
2022-10-17T07:57:08.985Z,15.40
2022-10-17T07:58:10.655Z,15.44
2022-10-17T07:59:12.223Z,15.46
2022-10-17T08:00:13.922Z,15.50
2022-10-17T08:01:16.316Z,15.51
2022-10-17T08:02:23.664Z,15.49
2022-10-17T08:03:25.273Z,15.56
2022-10-17T08:04:27.257Z,15.60
2022-10-17T08:05:29.400Z,15.58
2022-10-17T08:06:31.027Z,15.66
2022-10-17T08:07:32.558Z,15.66
2022-10-17T08:08:34.130Z,15.64
2022-10-17T08:09:35.804Z,15.68
2022-10-17T08:10:37.365Z,15.70
2022-10-17T08:11:38.957Z,15.70
2022-10-17T08:12:40.686Z,15.71
2022-10-17T08:13:42.464Z,15.74
2022-10-17T08:14:44.377Z,15.76
2022-10-17T08:15:47.947Z,15.80
2022-10-17T08:16:49.591Z,15.84
2022-10-17T08:17:51.380Z,15.84
2022-10-17T08:18:53.059Z,15.93
2022-10-17T08:19:54.718Z,15.93
2022-10-17T08:21:00.331Z,15.90
2022-10-17T08:22:02.321Z,15.93
2022-10-17T08:23:03.904Z,15.97
2022-10-17T08:24:05.579Z,16.01
2022-10-17T08:25:08.020Z,16.04
2022-10-17T08:26:10.933Z,16.08
2022-10-17T08:27:13.768Z,16.09
2022-10-17T08:28:15.342Z,16.08
2022-10-17T08:29:17.030Z,16.09
2022-10-17T08:30:18.689Z,16.11
2022-10-17T08:31:20.526Z,16.15
2022-10-17T08:32:24.964Z,16.19
2022-10-17T08:33:26.628Z,16.25
2022-10-17T08:34:28.263Z,16.24
2022-10-17T08:35:29.843Z,16.30
2022-10-17T08:36:31.405Z,16.33
2022-10-17T08:37:33.195Z,16.35
2022-10-17T08:38:36.378Z,16.41
2022-10-17T08:39:38.454Z,16.42
2022-10-17T08:40:42.978Z,16.47
2022-10-17T08:42:13.473Z,16.45
2022-10-17T08:43:39.795Z,16.44
2022-10-17T08:45:02.799Z,16.51
2022-10-17T08:46:06.107Z,16.52
2022-10-17T08:47:11.559Z,16.60
2022-10-17T08:48:15.789Z,16.62
2022-10-17T08:49:41.389Z,16.68
2022-10-17T08:50:51.867Z,16.70
2022-10-17T08:51:57.350Z,16.69
2022-10-17T08:53:03.621Z,16.72
2022-10-17T08:54:20.152Z,16.73
2022-10-17T08:55:27.726Z,16.76
2022-10-17T08:56:55.590Z,16.82
2022-10-17T08:57:57.157Z,16.87
2022-10-17T08:58:58.732Z,16.89
2022-10-17T09:00:00.375Z,16.96
2022-10-17T09:01:40.579Z,17.02
2022-10-17T09:02:44.874Z,17.07
2022-10-17T09:04:04.704Z,17.09
2022-10-17T09:05:34.456Z,17.13
2022-10-17T09:06:39.012Z,17.13
2022-10-17T09:08:04.056Z,17.14
2022-10-17T09:09:15.798Z,17.23
2022-10-17T09:10:33.264Z,17.24
2022-10-17T09:11:47.539Z,17.21
2022-10-17T09:12:52.386Z,17.26
2022-10-17T09:13:56.721Z,17.24
2022-10-17T09:15:20.089Z,17.23
2022-10-17T09:16:37.450Z,17.24
2022-10-17T09:18:27.530Z,17.28
2022-10-17T09:19:32.428Z,17.34
2022-10-17T09:20:38.932Z,17.40
2022-10-17T09:21:46.188Z,17.44
2022-10-17T09:22:59.994Z,17.52
2022-10-17T09:24:09.327Z,17.54
2022-10-17T09:25:13.859Z,17.57
2022-10-17T09:26:15.476Z,17.60
2022-10-17T09:27:32.616Z,17.64
2022-10-17T09:28:36.182Z,17.68
2022-10-17T09:29:42.905Z,17.71
2022-10-17T09:31:03.326Z,17.75
2022-10-17T09:32:13.042Z,17.72
2022-10-17T09:33:28.793Z,17.71
2022-10-17T09:34:41.160Z,17.71
2022-10-17T09:35:42.872Z,17.74
2022-10-17T09:36:44.543Z,17.75
2022-10-17T09:37:46.277Z,17.75
2022-10-17T09:38:49.768Z,17.79
2022-10-17T09:39:51.310Z,17.77
2022-10-17T09:41:00.872Z,17.82
2022-10-17T09:42:02.486Z,17.84
2022-10-17T09:43:05.603Z,17.84
2022-10-17T09:44:39.358Z,17.88
2022-10-17T09:45:51.058Z,17.89
2022-10-17T09:47:15.298Z,17.91
2022-10-17T09:48:19.619Z,17.94
2022-10-17T09:49:26.354Z,17.98
2022-10-17T09:50:30.837Z,17.99
2022-10-17T09:51:32.497Z,18.08
2022-10-17T09:52:35.520Z,18.12
2022-10-17T09:53:38.533Z,18.16
2022-10-17T09:54:48.948Z,18.21
2022-10-17T09:55:55.543Z,18.22
2022-10-17T09:57:07.757Z,18.25
2022-10-17T09:58:09.906Z,18.28
2022-10-17T09:59:13.751Z,18.25
2022-10-17T10:00:24.782Z,18.29
2022-10-17T10:01:31.160Z,18.28
2022-10-17T10:02:36.507Z,18.28
2022-10-17T10:03:38.070Z,18.30
2022-10-17T10:05:04.590Z,18.29
2022-10-17T10:06:17.651Z,18.33
2022-10-17T10:07:22.035Z,18.37
2022-10-17T10:08:36.892Z,18.47
2022-10-17T10:09:39.644Z,18.50
2022-10-17T10:10:44.826Z,18.54
2022-10-17T10:11:50.179Z,18.61
2022-10-17T10:13:07.819Z,18.70
2022-10-17T10:14:36.303Z,18.70
2022-10-17T10:15:41.083Z,18.78
2022-10-17T10:16:43.372Z,18.83
2022-10-17T10:17:45.155Z,18.87
2022-10-17T10:18:48.716Z,18.90
2022-10-17T10:19:52.577Z,18.98
2022-10-17T10:21:06.362Z,18.98
2022-10-17T10:22:18.928Z,18.98
2022-10-17T10:23:22.269Z,19.00
2022-10-17T10:24:30.337Z,19.01
2022-10-17T10:25:32.507Z,19.01
2022-10-17T10:26:39.072Z,19.01
2022-10-17T10:27:41.457Z,19.06
2022-10-17T10:28:51.305Z,19.03
2022-10-17T10:29:53.134Z,19.07
2022-10-17T10:30:54.721Z,19.10
2022-10-17T10:31:57.423Z,19.08
2022-10-17T10:32:59.152Z,19.10
2022-10-17T10:34:02.447Z,19.12
2022-10-17T10:35:06.614Z,19.17
2022-10-17T10:36:08.273Z,19.19
2022-10-17T10:37:23.376Z,19.21
2022-10-17T10:38:25.000Z,19.19
2022-10-17T10:39:49.870Z,19.24
2022-10-17T10:40:54.276Z,19.22
2022-10-17T10:41:55.885Z,19.22
2022-10-17T10:43:03.995Z,19.22
2022-10-17T10:44:11.382Z,19.24
2022-10-17T10:45:46.957Z,19.25
2022-10-17T10:46:44.562Z,19.27
2022-10-17T10:47:55.567Z,19.24
2022-10-17T10:49:01.276Z,19.24
2022-10-17T10:50:27.678Z,19.27
2022-10-17T10:51:41.476Z,19.24
2022-10-17T10:53:12.071Z,19.27
2022-10-17T10:54:31.110Z,19.25
2022-10-17T10:55:36.667Z,19.25
2022-10-17T10:56:41.199Z,19.25
2022-10-17T10:57:42.841Z,19.24
2022-10-17T10:58:48.213Z,19.28
2022-10-17T11:00:20.898Z,19.28
2022-10-17T11:01:43.739Z,19.36
2022-10-17T11:02:53.083Z,19.36
2022-10-17T11:04:18.022Z,19.39
2022-10-17T11:05:42.183Z,19.41
2022-10-17T11:06:44.831Z,19.42
2022-10-17T11:08:05.141Z,19.47
2022-10-17T11:09:14.226Z,19.52
2022-10-17T11:10:29.521Z,19.55
2022-10-17T11:11:40.588Z,19.57
2022-10-17T11:12:48.065Z,19.55
2022-10-17T11:14:03.964Z,19.59
2022-10-17T11:15:22.293Z,19.59
2022-10-17T11:16:29.510Z,19.62
2022-10-17T11:17:39.112Z,19.69
2022-10-17T11:18:55.328Z,19.73
2022-10-17T11:20:09.278Z,19.75
2022-10-17T11:21:16.022Z,19.75
2022-10-17T11:22:29.237Z,19.78
2022-10-17T11:23:48.763Z,19.78
2022-10-17T11:24:57.230Z,19.79
2022-10-17T11:26:00.254Z,19.76
2022-10-17T11:27:03.825Z,19.80
2022-10-17T11:28:12.956Z,19.78
2022-10-17T11:29:14.689Z,19.82
2022-10-17T11:30:16.481Z,19.83
2022-10-17T11:31:18.049Z,19.85
2022-10-17T11:32:32.904Z,19.87
2022-10-17T11:33:42.150Z,19.96
2022-10-17T11:34:48.200Z,19.99
2022-10-17T11:35:50.540Z,19.99
2022-10-17T11:36:55.132Z,20.00
2022-10-17T11:38:25.012Z,20.00
2022-10-17T11:39:48.592Z,20.01
2022-10-17T11:40:51.881Z,20.03
2022-10-17T11:42:03.442Z,19.99
2022-10-17T11:43:11.550Z,19.96
2022-10-17T11:44:30.642Z,19.99
2022-10-17T11:45:36.692Z,19.96
2022-10-17T11:46:38.272Z,19.96
2022-10-17T11:47:50.577Z,19.97
2022-10-17T11:49:02.814Z,19.99
2022-10-17T11:52:02.260Z,19.99
2022-10-17T11:53:08.682Z,19.99
2022-10-17T11:54:20.881Z,20.00
2022-10-17T11:55:24.581Z,20.01
2022-10-17T11:56:42.721Z,20.01
2022-10-17T11:57:50.742Z,20.03
2022-10-17T11:59:10.339Z,20.01
2022-10-17T12:00:25.280Z,20.06
2022-10-17T12:01:47.133Z,20.06
2022-10-17T12:03:03.784Z,20.06
2022-10-17T12:04:20.595Z,20.10
2022-10-17T12:05:22.219Z,20.13
2022-10-17T12:06:44.000Z,20.17
2022-10-17T12:08:03.385Z,20.23
2022-10-17T12:09:19.996Z,20.24
2022-10-17T12:10:30.921Z,20.26
2022-10-17T12:11:50.780Z,20.29
2022-10-17T12:12:52.362Z,20.26
2022-10-17T12:13:54.922Z,20.30
2022-10-17T12:15:26.353Z,20.31
2022-10-17T12:16:33.674Z,20.34
2022-10-17T12:17:44.982Z,20.33
2022-10-17T12:18:47.094Z,20.36
2022-10-17T12:19:49.045Z,20.37
2022-10-17T12:20:57.637Z,20.36
2022-10-17T12:22:19.783Z,20.37
2022-10-17T12:23:29.783Z,20.36
2022-10-17T12:24:35.629Z,20.40
2022-10-17T12:25:51.448Z,20.40
2022-10-17T12:26:56.344Z,20.41
2022-10-17T12:28:36.316Z,20.41
2022-10-17T12:29:37.882Z,20.41
2022-10-17T12:31:10.087Z,20.40
2022-10-17T12:32:12.464Z,20.44
2022-10-17T12:33:22.228Z,20.43
2022-10-17T12:34:23.861Z,20.43
2022-10-17T12:35:26.287Z,20.45
2022-10-17T12:36:30.678Z,20.45
2022-10-17T12:37:50.974Z,20.50
2022-10-17T12:39:01.718Z,20.55
2022-10-17T12:40:03.587Z,20.57
2022-10-17T12:41:05.478Z,20.60
2022-10-17T12:42:30.334Z,20.61
2022-10-17T12:43:35.894Z,20.63
2022-10-17T12:44:38.116Z,20.64
2022-10-17T12:45:55.053Z,20.64
2022-10-17T12:46:58.297Z,20.65
2022-10-17T12:47:59.880Z,20.68
2022-10-17T12:49:03.471Z,20.71
2022-10-17T12:50:28.622Z,20.74
2022-10-17T12:51:35.622Z,20.77
2022-10-17T12:54:12.842Z,20.78
2022-10-17T12:55:17.093Z,20.78
2022-10-17T12:56:38.683Z,20.77
2022-10-17T12:57:49.898Z,20.80
2022-10-17T12:58:51.497Z,20.80
2022-10-17T12:59:56.617Z,20.82
2022-10-17T13:01:22.479Z,20.88
2022-10-17T13:02:23.647Z,20.94
2022-10-17T13:03:33.157Z,20.94
2022-10-17T13:04:35.662Z,20.90
2022-10-17T13:05:38.271Z,20.90
2022-10-17T13:06:45.199Z,20.87
2022-10-17T13:07:46.807Z,20.85
2022-10-17T13:08:54.526Z,20.85
2022-10-17T13:09:58.084Z,20.88
2022-10-17T13:10:59.712Z,20.87
2022-10-17T13:12:03.887Z,20.85
2022-10-17T13:13:14.602Z,20.85
2022-10-17T13:14:17.157Z,20.84
2022-10-17T13:15:19.641Z,20.90
2022-10-17T13:16:51.398Z,20.85
2022-10-17T13:17:57.537Z,20.90
2022-10-17T13:18:59.976Z,20.92
2022-10-17T13:20:01.826Z,20.95
2022-10-17T13:21:14.432Z,20.98
2022-10-17T13:22:24.062Z,20.95
2022-10-17T13:23:26.421Z,20.98
2022-10-17T13:24:35.623Z,20.96
2022-10-17T13:25:39.546Z,20.98
2022-10-17T13:26:45.314Z,20.95
2022-10-17T13:27:47.587Z,20.95
2022-10-17T13:29:02.295Z,20.95
2022-10-17T13:30:32.238Z,20.96
2022-10-17T13:31:35.792Z,20.91
2022-10-17T13:32:38.891Z,20.88
2022-10-17T13:33:40.928Z,20.88
2022-10-17T13:34:42.483Z,20.88
2022-10-17T13:36:00.754Z,20.87
2022-10-17T13:37:07.073Z,20.88
2022-10-17T13:38:08.779Z,20.88
2022-10-17T13:39:16.969Z,20.91
2022-10-17T13:40:44.234Z,20.92
2022-10-17T13:41:42.077Z,20.95
2022-10-17T13:42:43.707Z,20.92
2022-10-17T13:43:45.347Z,20.90
2022-10-17T13:44:46.900Z,20.91
2022-10-17T13:45:50.515Z,20.92
2022-10-17T13:46:52.237Z,20.88
2022-10-17T13:47:53.848Z,20.90
2022-10-17T13:48:56.880Z,20.91
2022-10-17T13:49:58.570Z,20.88
2022-10-17T13:51:03.488Z,20.88
2022-10-17T13:52:07.753Z,20.85
2022-10-17T13:53:24.967Z,20.87
2022-10-17T13:54:29.307Z,20.88
2022-10-17T13:55:30.966Z,20.92
2022-10-17T13:56:32.528Z,20.94
2022-10-17T13:57:34.339Z,20.94
2022-10-17T13:58:47.213Z,20.92
2022-10-17T14:00:02.736Z,20.88
2022-10-17T14:01:04.385Z,20.90
2022-10-17T14:02:12.572Z,20.91
2022-10-17T14:03:14.168Z,20.88
2022-10-17T14:04:20.084Z,20.90
2022-10-17T14:05:23.803Z,20.91
2022-10-17T14:06:28.688Z,20.92
2022-10-17T14:08:09.466Z,20.91
2022-10-17T14:09:05.278Z,20.90
2022-10-17T14:10:14.992Z,20.88
2022-10-17T14:11:26.236Z,20.88
2022-10-17T14:12:27.817Z,20.88
2022-10-17T14:13:33.831Z,20.90
2022-10-17T14:14:58.078Z,20.85
2022-10-17T14:15:59.477Z,20.82
2022-10-17T14:17:01.044Z,20.81